createdAt,value
2022-12-04T00:00:46.010Z,72.66
2022-12-04T00:03:18.617Z,72.85
2022-12-04T00:05:51.136Z,72.99
2022-12-04T00:08:23.717Z,72.45
2022-12-04T00:10:57.578Z,72.86
2022-12-04T00:13:30.203Z,72.87
2022-12-04T00:16:05.012Z,72.35
2022-12-04T00:18:37.686Z,72.61
2022-12-04T00:21:12.443Z,72.22
2022-12-04T00:23:45.814Z,72.34
2022-12-04T00:26:22.317Z,72.51
2022-12-04T00:28:56.001Z,72.27
2022-12-04T00:31:30.430Z,72.24
2022-12-04T00:34:07.808Z,72.17
2022-12-04T00:36:40.929Z,72.28
2022-12-04T00:39:13.383Z,72.03
2022-12-04T00:41:47.292Z,72.03
2022-12-04T00:44:19.950Z,71.90
2022-12-04T00:46:52.592Z,72.07
2022-12-04T00:49:25.034Z,72.27
2022-12-04T00:51:57.474Z,72.34
2022-12-04T00:54:34.368Z,71.87
2022-12-04T00:57:08.341Z,72.13
2022-12-04T00:59:40.764Z,71.99
2022-12-04T01:02:13.221Z,72.46
2022-12-04T01:04:45.928Z,72.44
2022-12-04T01:07:18.591Z,72.60
2022-12-04T01:09:51.287Z,72.01
2022-12-04T01:12:25.181Z,71.77
2022-12-04T01:14:57.660Z,72.35
2022-12-04T01:17:30.294Z,72.07
2022-12-04T01:20:02.769Z,72.23
2022-12-04T01:22:35.825Z,72.50
2022-12-04T01:25:09.598Z,72.17
2022-12-04T01:27:43.527Z,72.17
2022-12-04T01:30:16.202Z,72.49
2022-12-04T01:32:48.845Z,72.01
2022-12-04T01:35:21.377Z,71.98
2022-12-04T01:37:53.900Z,71.90
2022-12-04T01:40:26.395Z,71.55
2022-12-04T01:43:01.321Z,72.01
2022-12-04T01:45:41.511Z,72.48
2022-12-04T01:48:20.134Z,71.49
2022-12-04T01:50:55.692Z,72.26
2022-12-04T01:53:30.507Z,71.99
2022-12-04T01:56:04.069Z,71.53
2022-12-04T01:58:42.547Z,71.59
2022-12-04T02:01:15.192Z,71.98
2022-12-04T02:03:47.731Z,72.11
2022-12-04T02:06:20.335Z,72.04
2022-12-04T02:08:53.221Z,72.20
2022-12-04T02:11:34.940Z,71.59
2022-12-04T02:14:20.146Z,72.39
2022-12-04T02:17:01.873Z,71.59
2022-12-04T02:19:56.316Z,72.26
2022-12-04T02:22:47.626Z,71.59
2022-12-04T02:25:27.725Z,71.75
2022-12-04T02:28:08.374Z,72.16
2022-12-04T02:30:44.395Z,71.63
2022-12-04T02:33:22.282Z,71.90
2022-12-04T02:36:02.202Z,72.03
2022-12-04T02:38:39.226Z,71.32
2022-12-04T02:41:17.236Z,71.41
2022-12-04T02:43:54.489Z,71.46
2022-12-04T02:46:32.546Z,71.85
2022-12-04T02:49:10.519Z,72.22
2022-12-04T02:51:45.364Z,71.51
2022-12-04T02:54:22.895Z,71.39
2022-12-04T02:56:56.700Z,71.38
2022-12-04T02:59:34.197Z,71.50
2022-12-04T03:02:11.283Z,71.37
2022-12-04T03:04:47.388Z,71.63
2022-12-04T03:07:25.561Z,71.57
2022-12-04T03:10:01.127Z,71.34
2022-12-04T03:12:40.439Z,71.51
2022-12-04T03:15:18.054Z,71.86
2022-12-04T03:17:56.194Z,71.84
2022-12-04T03:20:32.115Z,71.81
2022-12-04T03:23:14.915Z,71.18
2022-12-04T03:25:56.410Z,71.14
2022-12-04T03:28:33.775Z,71.47
2022-12-04T03:31:10.777Z,71.65
2022-12-04T03:33:46.895Z,71.57
2022-12-04T03:36:24.002Z,71.46
2022-12-04T03:39:03.364Z,71.85
2022-12-04T03:41:50.086Z,71.94
2022-12-04T03:44:26.800Z,71.64
2022-12-04T03:47:06.739Z,71.40
2022-12-04T03:49:47.099Z,71.38
2022-12-04T03:52:25.052Z,71.39
2022-12-04T03:55:01.690Z,71.36
2022-12-04T03:57:42.719Z,71.69
2022-12-04T04:00:18.790Z,71.71
2022-12-04T04:02:57.633Z,71.36
2022-12-04T04:05:31.883Z,71.63
2022-12-04T04:08:34.622Z,71.82
2022-12-04T04:11:13.809Z,71.79
2022-12-04T04:14:11.005Z,71.31
2022-12-04T04:17:06.780Z,71.59
2022-12-04T04:20:03.904Z,71.46
2022-12-04T04:22:56.749Z,71.59
2022-12-04T04:25:30.146Z,71.74
2022-12-04T04:28:02.708Z,71.89
2022-12-04T04:30:36.275Z,71.11
2022-12-04T04:33:16.366Z,71.53
2022-12-04T04:35:57.959Z,71.33
2022-12-04T04:38:37.987Z,71.39
2022-12-04T04:41:15.681Z,71.33
2022-12-04T04:43:57.389Z,71.07
2022-12-04T04:46:33.725Z,71.44
2022-12-04T04:49:10.515Z,71.75
2022-12-04T04:51:45.608Z,71.60
2022-12-04T04:54:19.579Z,71.70
2022-12-04T04:56:52.283Z,71.11
2022-12-04T04:59:24.769Z,71.23
2022-12-04T05:01:57.628Z,71.22
2022-12-04T05:04:30.276Z,71.86
2022-12-04T05:07:04.197Z,71.64
2022-12-04T05:09:41.108Z,70.98
2022-12-04T05:12:13.946Z,71.22
2022-12-04T05:14:47.590Z,71.54
2022-12-04T05:17:20.312Z,71.56
2022-12-04T05:19:59.290Z,71.39
2022-12-04T05:22:35.412Z,71.15
2022-12-04T05:25:08.629Z,71.74
2022-12-04T05:27:41.183Z,71.37
2022-12-04T05:30:14.060Z,71.45
2022-12-04T05:32:46.736Z,71.19
2022-12-04T05:35:19.266Z,71.51
2022-12-04T05:37:53.602Z,71.47
2022-12-04T05:40:26.128Z,70.96
2022-12-04T05:42:58.632Z,71.30
2022-12-04T05:45:31.089Z,71.36
2022-12-04T05:48:03.715Z,71.17
2022-12-04T05:50:36.330Z,71.53
2022-12-04T05:53:10.473Z,71.50
2022-12-04T05:55:42.929Z,71.29
2022-12-04T05:58:15.560Z,71.08
2022-12-04T06:00:48.082Z,71.38
2022-12-04T06:03:20.924Z,70.92
2022-12-04T06:05:53.358Z,71.47
2022-12-04T06:08:27.370Z,71.33
2022-12-04T06:10:59.868Z,71.53
2022-12-04T06:13:32.361Z,71.12
2022-12-04T06:16:05.292Z,71.65
2022-12-04T06:18:38.702Z,71.39
2022-12-04T06:21:11.453Z,71.13
2022-12-04T06:23:45.589Z,70.91
2022-12-04T06:26:18.780Z,71.07
2022-12-04T06:28:53.144Z,70.94
2022-12-04T06:31:26.973Z,70.95
2022-12-04T06:33:59.794Z,71.21
2022-12-04T06:36:32.608Z,70.82
2022-12-04T06:39:06.696Z,71.22
2022-12-04T06:41:39.221Z,70.89
2022-12-04T06:44:11.679Z,71.38
2022-12-04T06:46:47.232Z,71.36
2022-12-04T06:49:23.108Z,71.13
2022-12-04T06:51:55.664Z,71.29
2022-12-04T06:54:29.554Z,70.83
2022-12-04T06:57:01.987Z,71.21
2022-12-04T06:59:34.970Z,71.33
2022-12-04T07:02:09.154Z,71.29
2022-12-04T07:04:41.766Z,70.88
2022-12-04T07:07:14.210Z,71.33
2022-12-04T07:09:48.192Z,71.29
2022-12-04T07:12:20.748Z,71.17
2022-12-04T07:14:53.109Z,70.80
2022-12-04T07:17:25.542Z,70.85
2022-12-04T07:19:58.435Z,71.34
2022-12-04T07:22:31.056Z,71.32
2022-12-04T07:25:05.715Z,70.98
2022-12-04T07:27:38.153Z,70.96
2022-12-04T07:30:15.648Z,70.52
2022-12-04T07:32:48.410Z,70.36
2022-12-04T07:35:20.885Z,70.47
2022-12-04T07:37:53.393Z,70.51
2022-12-04T07:40:27.402Z,70.99
2022-12-04T07:42:59.925Z,70.53
2022-12-04T07:45:32.451Z,70.86
2022-12-04T07:48:05.488Z,70.87
2022-12-04T07:50:38.069Z,71.21
2022-12-04T07:53:10.639Z,70.74
2022-12-04T07:55:44.599Z,70.69
2022-12-04T07:58:16.992Z,70.34
2022-12-04T08:00:49.522Z,70.97
2022-12-04T08:03:22.103Z,71.11
2022-12-04T08:05:54.578Z,70.96
2022-12-04T08:08:27.154Z,70.49
2022-12-04T08:11:01.938Z,70.98
2022-12-04T08:13:35.048Z,70.90
2022-12-04T08:16:10.167Z,70.94
2022-12-04T08:18:46.850Z,70.29
2022-12-04T08:21:21.389Z,70.85
2022-12-04T08:23:55.815Z,70.58
2022-12-04T08:26:31.008Z,70.72
2022-12-04T08:29:04.683Z,70.57
2022-12-04T08:31:37.592Z,70.65
2022-12-04T08:34:10.192Z,70.49
2022-12-04T08:36:42.787Z,70.52
2022-12-04T08:39:15.258Z,70.10
2022-12-04T08:41:55.305Z,70.30
2022-12-04T08:44:29.453Z,70.48
2022-12-04T08:47:01.836Z,70.41
2022-12-04T08:49:34.342Z,70.11
2022-12-04T08:52:06.976Z,70.41
2022-12-04T08:54:39.589Z,70.03
2022-12-04T08:57:13.476Z,70.42
2022-12-04T08:59:45.852Z,70.46
2022-12-04T09:02:18.390Z,69.95
2022-12-04T09:04:50.982Z,70.57
2022-12-04T09:07:23.563Z,70.59
2022-12-04T09:09:56.208Z,70.53
2022-12-04T09:12:30.552Z,70.19
2022-12-04T09:15:03.077Z,70.50
2022-12-04T09:17:36.941Z,70.62
2022-12-04T09:20:10.192Z,70.33
2022-12-04T09:23:02.897Z,70.38
2022-12-04T09:25:36.524Z,70.69
2022-12-04T09:28:10.424Z,70.05
2022-12-04T09:30:42.891Z,70.21
2022-12-04T09:33:15.477Z,69.86
2022-12-04T09:35:47.991Z,70.63
2022-12-04T09:38:20.926Z,70.02
2022-12-04T09:41:02.355Z,69.84
2022-12-04T09:43:44.192Z,70.28
2022-12-04T09:46:22.684Z,70.51
2022-12-04T09:48:58.834Z,69.89
2022-12-04T09:51:33.933Z,70.04
2022-12-04T09:54:11.221Z,70.26
2022-12-04T09:56:48.616Z,69.97
2022-12-04T09:59:26.329Z,69.81
2022-12-04T10:02:02.789Z,70.00
2022-12-04T10:04:35.488Z,69.58
2022-12-04T10:07:15.612Z,70.06
2022-12-04T10:09:54.790Z,70.18
2022-12-04T10:12:36.424Z,69.76
2022-12-04T10:15:20.613Z,69.99
2022-12-04T10:18:16.899Z,69.82
2022-12-04T10:21:02.434Z,69.60
2022-12-04T10:23:45.385Z,69.33
2022-12-04T10:26:22.614Z,68.68
2022-12-04T10:28:59.890Z,68.36
2022-12-04T10:31:37.107Z,68.06
2022-12-04T10:34:17.083Z,67.58
2022-12-04T10:36:53.358Z,67.81
2022-12-04T10:39:28.585Z,67.37
2022-12-04T10:42:06.768Z,67.37
2022-12-04T10:44:39.491Z,67.20
2022-12-04T10:47:14.682Z,66.48
2022-12-04T10:49:47.673Z,66.63
2022-12-04T10:52:20.244Z,66.42
2022-12-04T10:54:56.648Z,66.16
2022-12-04T10:57:37.991Z,65.61
2022-12-04T11:00:32.655Z,65.56
2022-12-04T11:03:24.364Z,65.82
2022-12-04T11:06:00.172Z,65.10
2022-12-04T11:08:37.237Z,65.23
2022-12-04T11:11:13.194Z,65.25
2022-12-04T11:13:46.161Z,65.22
2022-12-04T11:16:34.112Z,65.17
2022-12-04T11:19:22.628Z,64.78
2022-12-04T11:21:58.672Z,64.91
2022-12-04T11:24:33.658Z,64.20
2022-12-04T11:27:08.249Z,64.36
2022-12-04T11:29:45.165Z,64.05
2022-12-04T11:32:23.272Z,63.90
2022-12-04T11:35:01.850Z,63.99
2022-12-04T11:37:38.218Z,64.82
2022-12-04T11:40:18.674Z,64.82
2022-12-04T11:43:03.994Z,65.42
2022-12-04T11:45:36.652Z,65.61
2022-12-04T11:48:15.312Z,65.79
2022-12-04T11:50:54.611Z,65.65
2022-12-04T11:53:42.432Z,65.81
2022-12-04T11:56:22.844Z,65.72
2022-12-04T11:59:16.995Z,65.48
2022-12-04T12:01:59.229Z,66.03
2022-12-04T12:05:03.523Z,65.66
2022-12-04T12:07:45.693Z,65.76
2022-12-04T12:10:27.064Z,65.80
2022-12-04T12:13:09.291Z,65.72
2022-12-04T12:15:50.075Z,65.50
2022-12-04T12:18:42.337Z,65.46
2022-12-04T12:21:22.676Z,65.81
2022-12-04T12:24:11.299Z,65.90
2022-12-04T12:26:55.264Z,65.89
2022-12-04T12:29:43.164Z,65.58
2022-12-04T12:32:28.165Z,65.52
2022-12-04T12:35:01.935Z,65.91
2022-12-04T12:37:44.242Z,65.63
2022-12-04T12:40:29.303Z,65.90
2022-12-04T12:43:07.241Z,65.35
2022-12-04T12:45:46.340Z,65.58
2022-12-04T12:48:28.744Z,65.46
2022-12-04T12:51:31.352Z,65.24
2022-12-04T12:54:11.439Z,65.49
2022-12-04T12:56:50.228Z,65.33
2022-12-04T12:59:27.492Z,65.92
2022-12-04T13:02:06.560Z,64.86
2022-12-04T13:04:42.646Z,65.52
2022-12-04T13:07:24.415Z,65.71
2022-12-04T13:10:04.479Z,65.52
2022-12-04T13:12:47.386Z,65.24
2022-12-04T13:15:24.690Z,65.33
2022-12-04T13:17:58.595Z,65.04
2022-12-04T13:20:38.769Z,64.88
2022-12-04T13:23:24.315Z,65.47
2022-12-04T13:26:07.719Z,65.11
2022-12-04T13:28:50.306Z,65.02
2022-12-04T13:31:34.292Z,65.17
2022-12-04T13:34:39.252Z,64.93
2022-12-04T13:37:49.650Z,64.94
2022-12-04T13:40:39.970Z,65.08
2022-12-04T13:43:47.718Z,64.79
2022-12-04T13:46:37.141Z,64.79
2022-12-04T13:49:25.269Z,64.70
2022-12-04T13:51:59.462Z,64.91
2022-12-04T13:54:34.984Z,64.43
2022-12-04T13:57:21.205Z,64.37
2022-12-04T14:00:08.347Z,64.82
2022-12-04T14:02:52.101Z,65.13
2022-12-04T14:05:34.548Z,64.63
2022-12-04T14:08:22.291Z,64.60
2022-12-04T14:11:02.439Z,64.99
2022-12-04T14:13:44.532Z,64.57
2022-12-04T14:16:23.362Z,64.57
2022-12-04T14:18:58.187Z,64.87
2022-12-04T14:21:39.646Z,65.21
2022-12-04T14:24:17.676Z,65.20
2022-12-04T14:29:49.779Z,64.58
2022-12-04T14:32:27.962Z,64.94
2022-12-04T14:35:02.112Z,64.55
2022-12-04T14:37:37.960Z,64.51
2022-12-04T14:40:20.742Z,64.39
2022-12-04T14:42:54.664Z,64.94
2022-12-04T14:45:36.895Z,64.36
2022-12-04T14:48:23.507Z,64.76
2022-12-04T14:51:05.149Z,64.35
2022-12-04T14:53:45.438Z,64.57
2022-12-04T14:56:41.484Z,64.92
2022-12-04T14:59:17.488Z,64.71
2022-12-04T15:01:52.716Z,64.35
2022-12-04T15:04:29.758Z,63.87
2022-12-04T15:07:02.932Z,64.93
2022-12-04T15:09:54.804Z,64.50
2022-12-04T15:12:33.732Z,64.70
2022-12-04T15:15:14.483Z,64.61
2022-12-04T15:17:57.513Z,64.36
2022-12-04T15:20:39.057Z,64.75
2022-12-04T15:23:14.748Z,64.46
2022-12-04T15:25:49.804Z,64.59
2022-12-04T15:28:26.903Z,64.59
2022-12-04T15:31:02.701Z,64.09
2022-12-04T15:33:37.674Z,64.63
2022-12-04T15:36:16.894Z,64.85
2022-12-04T15:38:51.640Z,64.70
2022-12-04T15:41:31.453Z,64.86
2022-12-04T15:44:22.370Z,64.66
2022-12-04T15:46:55.907Z,65.03
2022-12-04T15:49:30.274Z,64.88
2022-12-04T15:52:14.733Z,64.76
2022-12-04T15:54:54.731Z,64.71
2022-12-04T15:57:30.184Z,64.67
2022-12-04T16:00:07.353Z,64.92
2022-12-04T16:02:43.053Z,64.72
2022-12-04T16:05:29.008Z,64.52
2022-12-04T16:08:25.711Z,64.67
2022-12-04T16:11:01.615Z,65.37
2022-12-04T16:13:36.305Z,64.79
2022-12-04T16:16:14.275Z,64.82
2022-12-04T16:18:50.745Z,64.96
2022-12-04T16:21:29.948Z,64.68
2022-12-04T16:24:11.892Z,65.40
2022-12-04T16:26:44.290Z,64.75
2022-12-04T16:29:19.766Z,64.88
2022-12-04T16:31:52.783Z,64.66
2022-12-04T16:34:26.300Z,64.77
2022-12-04T16:36:59.255Z,65.00
2022-12-04T16:39:38.243Z,65.33
2022-12-04T16:42:17.512Z,65.44
2022-12-04T16:44:50.910Z,65.00
2022-12-04T16:47:23.708Z,65.33
2022-12-04T16:49:56.202Z,65.49
2022-12-04T16:52:29.062Z,65.39
2022-12-04T16:55:05.287Z,65.44
2022-12-04T16:57:38.117Z,65.50
2022-12-04T17:00:13.587Z,65.11
2022-12-04T17:02:46.800Z,64.82
2022-12-04T17:05:20.991Z,65.32
2022-12-04T17:07:53.921Z,65.46
2022-12-04T17:10:29.579Z,65.53
2022-12-04T17:13:02.164Z,65.05
2022-12-04T17:15:34.850Z,65.56
2022-12-04T17:18:11.360Z,65.23
2022-12-04T17:20:46.499Z,65.61
2022-12-04T17:23:19.101Z,65.67
2022-12-04T17:25:52.984Z,65.27
2022-12-04T17:28:25.365Z,65.17
2022-12-04T17:31:02.584Z,65.57
2022-12-04T17:33:35.257Z,65.31
2022-12-04T17:36:09.127Z,65.41
2022-12-04T17:38:41.988Z,65.84
2022-12-04T17:41:16.245Z,65.90
2022-12-04T17:43:50.673Z,65.92
2022-12-04T17:46:24.644Z,65.48
2022-12-04T17:49:00.531Z,65.72
2022-12-04T17:51:36.786Z,66.08
2022-12-04T17:54:10.696Z,66.11
2022-12-04T17:56:48.242Z,65.60
2022-12-04T17:59:22.994Z,66.05
2022-12-04T18:01:55.424Z,66.19
2022-12-04T18:04:28.184Z,65.75
2022-12-04T18:07:00.767Z,65.72
2022-12-04T18:09:33.494Z,66.22
2022-12-04T18:12:07.628Z,65.88
2022-12-04T18:14:40.615Z,65.95
2022-12-04T18:17:13.198Z,65.88
2022-12-04T18:19:45.698Z,66.27
2022-12-04T18:22:39.395Z,66.22
2022-12-04T18:25:12.146Z,65.90
2022-12-04T18:27:46.606Z,65.89
2022-12-04T18:30:19.230Z,66.11
2022-12-04T18:32:54.333Z,66.26
2022-12-04T18:35:27.021Z,66.31
2022-12-04T18:37:59.432Z,66.58
2022-12-04T18:40:34.722Z,66.36
2022-12-04T18:43:08.525Z,66.16
2022-12-04T18:45:44.012Z,66.71
2022-12-04T18:48:37.870Z,66.34
2022-12-04T18:51:18.403Z,66.45
2022-12-04T18:53:56.141Z,66.55
2022-12-04T18:56:30.256Z,66.05
2022-12-04T18:59:05.940Z,66.19
2022-12-04T19:01:39.593Z,66.97
2022-12-04T19:04:14.578Z,66.40
2022-12-04T19:06:48.930Z,66.43
2022-12-04T19:09:40.734Z,66.38
2022-12-04T19:12:17.528Z,66.29
2022-12-04T19:14:54.220Z,66.17
2022-12-04T19:17:26.823Z,66.61
2022-12-04T19:19:59.496Z,66.22
2022-12-04T19:22:31.993Z,66.27
2022-12-04T19:25:05.273Z,66.36
2022-12-04T19:27:37.874Z,66.43
2022-12-04T19:30:13.123Z,66.30
2022-12-04T19:32:45.586Z,66.60
2022-12-04T19:35:17.980Z,66.81
2022-12-04T19:37:52.791Z,66.42
2022-12-04T19:40:25.547Z,66.58
2022-12-04T19:43:02.605Z,66.58
2022-12-04T19:45:36.959Z,67.07
2022-12-04T19:48:09.681Z,66.76
2022-12-04T19:50:42.058Z,66.83
2022-12-04T19:53:14.491Z,66.76
2022-12-04T19:55:46.904Z,66.53
2022-12-04T19:58:19.571Z,66.68
2022-12-04T20:00:56.590Z,66.75
2022-12-04T20:03:29.403Z,67.29
2022-12-04T20:06:02.949Z,66.57
2022-12-04T20:08:36.011Z,67.12
2022-12-04T20:11:11.881Z,67.01
2022-12-04T20:13:45.945Z,67.16
2022-12-04T20:16:20.052Z,66.99
2022-12-04T20:18:53.371Z,66.88
2022-12-04T20:21:30.353Z,67.11
2022-12-04T20:24:04.505Z,66.90
2022-12-04T20:26:38.852Z,67.11
2022-12-04T20:29:14.139Z,67.43
2022-12-04T20:31:48.627Z,66.99
2022-12-04T20:34:21.300Z,67.21
2022-12-04T20:36:53.660Z,67.10
2022-12-04T20:39:26.274Z,67.13
2022-12-04T20:41:58.759Z,67.29
2022-12-04T20:44:31.158Z,67.04
2022-12-04T20:47:04.899Z,67.36
2022-12-04T20:49:37.543Z,67.09
2022-12-04T20:52:11.243Z,67.47
2022-12-04T20:54:43.731Z,67.30
2022-12-04T20:57:16.176Z,67.36
2022-12-04T20:59:49.052Z,67.22
2022-12-04T21:02:22.845Z,67.43
2022-12-04T21:04:55.282Z,67.60
2022-12-04T21:07:27.751Z,67.42
2022-12-04T21:10:01.677Z,67.35
2022-12-04T21:13:00.631Z,67.46
2022-12-04T21:15:51.688Z,67.39
2022-12-04T21:18:25.508Z,67.34
2022-12-04T21:20:58.204Z,67.45
2022-12-04T21:23:30.736Z,67.45
2022-12-04T21:26:03.672Z,67.50
2022-12-04T21:28:36.042Z,67.49
2022-12-04T21:31:08.757Z,67.60
2022-12-04T21:33:42.611Z,67.45
2022-12-04T21:36:15.249Z,67.51
2022-12-04T21:38:48.244Z,67.58
2022-12-04T21:41:40.048Z,67.72
2022-12-04T21:44:15.096Z,67.83
2022-12-04T21:46:47.657Z,67.76
2022-12-04T21:49:21.658Z,67.64
2022-12-04T21:51:57.801Z,67.41
2022-12-04T21:54:31.297Z,67.75
2022-12-04T21:57:03.836Z,67.82
2022-12-04T21:59:36.407Z,67.65
2022-12-04T22:02:10.738Z,67.81
2022-12-04T22:04:44.633Z,68.04
2022-12-04T22:07:17.288Z,67.81
2022-12-04T22:09:49.703Z,67.71
2022-12-04T22:15:14.650Z,67.96
2022-12-04T22:17:47.150Z,67.93
2022-12-04T22:20:20.970Z,67.49
2022-12-04T22:22:53.672Z,68.28
2022-12-04T22:25:26.013Z,68.06
2022-12-04T22:27:58.885Z,68.31
2022-12-04T22:30:33.421Z,68.22
2022-12-04T22:33:06.205Z,68.33
2022-12-04T22:35:39.953Z,68.40
2022-12-04T22:38:12.401Z,68.22
2022-12-04T22:40:44.758Z,68.40
2022-12-04T22:43:17.308Z,68.35
2022-12-04T22:45:49.796Z,68.19
2022-12-04T22:48:22.352Z,68.43
2022-12-04T22:51:02.408Z,68.39
2022-12-04T22:53:37.256Z,68.41
2022-12-04T22:56:11.755Z,68.28
2022-12-04T22:58:44.685Z,68.49
2022-12-04T23:01:18.545Z,68.60
2022-12-04T23:03:51.967Z,68.58
2022-12-04T23:06:27.314Z,68.68
2022-12-04T23:09:01.670Z,68.82
2022-12-04T23:11:34.469Z,68.54
2022-12-04T23:14:09.553Z,68.51
2022-12-04T23:16:42.640Z,68.76
2022-12-04T23:19:17.871Z,68.84
2022-12-04T23:21:56.911Z,68.74
2022-12-04T23:24:30.097Z,69.05
2022-12-04T23:27:02.608Z,69.01
2022-12-04T23:32:27.724Z,69.12
2022-12-04T23:35:00.420Z,69.15
2022-12-04T23:37:34.317Z,69.12
2022-12-04T23:40:09.370Z,69.34
2022-12-04T23:42:42.011Z,69.13
2022-12-04T23:45:14.694Z,69.33
2022-12-04T23:47:47.918Z,69.39
2022-12-04T23:50:20.465Z,69.35
2022-12-04T23:52:54.315Z,69.16
2022-12-04T23:55:31.128Z,69.25
2022-12-04T23:58:06.710Z,69.41
